createdAt,value
2018-09-14T00:00:02.222Z,25.10
2018-09-14T00:02:36.071Z,24.52
2018-09-14T00:05:09.851Z,26.35
2018-09-14T00:07:49.135Z,26.30
2018-09-14T00:10:23.751Z,26.08
2018-09-14T00:12:57.519Z,29.33
2018-09-14T00:15:31.288Z,28.23
2018-09-14T00:18:17.687Z,29.48
2018-09-14T00:20:51.495Z,28.42
2018-09-14T00:23:25.223Z,27.80
2018-09-14T00:25:59.036Z,26.02
2018-09-14T00:28:32.807Z,26.85
2018-09-14T00:33:51.586Z,28.23
2018-09-14T00:36:25.554Z,29.10
2018-09-14T00:44:59.372Z,26.95
2018-09-14T00:47:33.911Z,26.85
2018-09-14T00:53:07.099Z,29.00
2018-09-14T00:55:41.071Z,28.27
2018-09-14T00:58:14.889Z,28.90
2018-09-14T01:03:48.556Z,27.50
2018-09-14T01:06:22.248Z,28.80
2018-09-14T01:14:54.752Z,27.55
2018-09-14T01:23:28.908Z,29.50
2018-09-14T01:29:04.307Z,26.77
2018-09-14T01:34:38.806Z,27.62
2018-09-14T01:37:12.580Z,32.10
2018-09-14T01:39:46.352Z,32.00
2018-09-14T01:42:38.086Z,34.08
2018-09-14T01:45:12.476Z,34.38
2018-09-14T01:47:46.338Z,34.55
2018-09-14T01:50:20.142Z,33.90
2018-09-14T01:52:53.855Z,34.15
2018-09-14T01:55:35.247Z,35.10
2018-09-14T01:58:09.751Z,35.65
2018-09-14T02:00:44.248Z,35.78
2018-09-14T02:12:38.175Z,26.02
2018-09-14T02:18:11.868Z,27.20
2018-09-14T02:20:46.384Z,27.20
2018-09-14T02:23:20.275Z,26.15
2018-09-14T02:28:53.498Z,27.10
2018-09-14T02:43:27.431Z,31.30
2018-09-14T02:46:01.197Z,30.50
2018-09-14T02:51:42.451Z,32.45
2018-09-14T02:54:16.321Z,30.42
2018-09-14T02:56:50.171Z,29.98
2018-09-14T02:59:24.796Z,30.65
2018-09-14T03:04:58.093Z,29.42
2018-09-14T03:10:30.776Z,29.02
2018-09-14T03:13:04.609Z,28.42
2018-09-14T03:15:38.557Z,31.05
2018-09-14T03:18:12.425Z,31.05
2018-09-14T03:20:49.187Z,29.70
2018-09-14T03:23:22.847Z,30.77
2018-09-14T03:25:56.599Z,31.90
2018-09-14T03:28:34.417Z,29.92
2018-09-14T03:31:08.107Z,33.25
2018-09-14T03:33:41.907Z,32.65
2018-09-14T03:36:15.724Z,31.45
2018-09-14T03:38:49.660Z,31.92
2018-09-14T03:41:23.421Z,32.17
2018-09-14T03:43:57.873Z,34.30
2018-09-14T03:46:31.694Z,32.70
2018-09-14T03:49:05.439Z,31.62
2018-09-14T03:51:39.216Z,32.83
2018-09-14T03:54:13.054Z,31.20
2018-09-14T04:02:45.585Z,32.90
2018-09-14T04:08:19.403Z,31.73
2018-09-14T04:13:52.832Z,31.00
2018-09-14T04:16:26.584Z,32.10
2018-09-14T04:22:00.426Z,31.42
2018-09-14T04:24:39.257Z,31.20
2018-09-14T04:27:12.924Z,31.75
2018-09-14T04:29:48.208Z,32.72
2018-09-14T04:32:21.853Z,38.25
2018-09-14T04:37:55.572Z,31.87
2018-09-14T04:40:29.390Z,33.15
2018-09-14T04:43:03.304Z,34.30
2018-09-14T04:51:36.587Z,30.52
2018-09-14T04:54:10.324Z,35.00
2018-09-14T04:56:44.222Z,32.33
2018-09-14T04:59:18.098Z,31.73
2018-09-14T05:01:52.010Z,33.42
2018-09-14T05:04:25.940Z,33.40
2018-09-14T05:07:11.644Z,33.55
2018-09-14T05:09:45.346Z,33.13
2018-09-14T05:12:20.136Z,32.88
2018-09-14T05:14:53.775Z,31.95
2018-09-14T05:17:46.034Z,33.97
2018-09-14T05:23:19.497Z,31.37
2018-09-14T05:25:53.483Z,32.92
2018-09-14T05:28:29.132Z,32.05
2018-09-14T05:31:07.757Z,33.90
2018-09-14T05:33:41.467Z,30.48
2018-09-14T05:39:15.503Z,35.28
2018-09-14T05:41:53.424Z,34.50
2018-09-14T05:44:27.139Z,31.12
2018-09-14T05:50:03.726Z,32.72
2018-09-14T05:52:37.563Z,35.10
2018-09-14T05:55:14.023Z,34.65
2018-09-14T05:57:47.763Z,34.60
2018-09-14T06:00:21.527Z,37.45
2018-09-14T06:02:55.367Z,34.08
2018-09-14T06:05:29.107Z,34.80
2018-09-14T06:08:02.939Z,35.35
2018-09-14T06:13:36.408Z,35.20
2018-09-14T06:16:11.094Z,36.17
2018-09-14T06:18:44.752Z,34.08
2018-09-14T06:21:18.581Z,35.97
2018-09-14T06:23:52.323Z,34.58
2018-09-14T06:26:26.138Z,33.22
2018-09-14T06:29:00.007Z,33.70
2018-09-14T06:40:35.101Z,32.85
2018-09-14T06:43:08.918Z,32.70
2018-09-14T06:45:44.692Z,31.67
2018-09-14T06:48:19.243Z,31.25
2018-09-14T06:50:53.003Z,32.53
2018-09-14T06:53:27.683Z,32.42
2018-09-14T06:56:01.524Z,30.90
2018-09-14T07:01:34.906Z,29.02
2018-09-14T07:04:08.680Z,30.35
2018-09-14T07:06:42.651Z,31.52
2018-09-14T07:09:16.548Z,29.50
2018-09-14T07:14:51.367Z,28.73
2018-09-14T07:17:26.307Z,30.12
2018-09-14T07:23:05.416Z,30.27
2018-09-14T07:25:39.548Z,28.45
2018-09-14T07:28:15.040Z,30.80
2018-09-14T07:33:49.286Z,32.25
2018-09-14T07:42:23.343Z,30.33
2018-09-14T07:44:57.984Z,30.12
2018-09-14T08:02:30.515Z,27.37
2018-09-14T08:11:04.319Z,27.00
2018-09-14T08:13:38.120Z,28.45
2018-09-14T08:19:11.911Z,27.62
2018-09-14T08:21:46.608Z,28.38
2018-09-14T08:27:20.195Z,28.23
2018-09-14T08:29:53.891Z,24.98
2018-09-14T08:32:27.788Z,27.30
2018-09-14T08:35:01.669Z,28.67
2018-09-14T08:37:35.508Z,27.02
2018-09-14T08:43:09.089Z,30.40
2018-09-14T08:45:44.512Z,24.75
2018-09-14T08:48:18.171Z,24.87
2018-09-14T08:53:51.422Z,24.95
2018-09-14T08:56:26.204Z,23.85
2018-09-14T09:08:00.281Z,23.12
2018-09-14T09:10:34.927Z,22.50
2018-09-14T09:13:08.775Z,24.25
2018-09-14T09:15:43.419Z,23.50
2018-09-14T09:18:17.179Z,21.90
2018-09-14T09:23:53.017Z,20.87
2018-09-14T09:26:27.142Z,22.97
2018-09-14T09:32:00.771Z,19.37
2018-09-14T09:34:34.538Z,20.90
2018-09-14T09:37:08.363Z,19.40
2018-09-14T09:39:42.160Z,19.40
2018-09-14T09:42:39.552Z,20.27
2018-09-14T09:45:14.159Z,21.60
2018-09-14T09:47:48.162Z,20.47
2018-09-14T09:50:22.019Z,19.63
2018-09-14T09:52:56.611Z,19.73
2018-09-14T09:58:29.804Z,20.30
2018-09-14T10:01:08.294Z,20.10
2018-09-14T10:03:42.949Z,19.77
2018-09-14T10:06:17.469Z,20.53
2018-09-14T10:14:53.407Z,18.87
2018-09-14T10:17:27.214Z,17.37
2018-09-14T10:20:01.019Z,17.80
2018-09-14T10:22:41.073Z,20.97
2018-09-14T10:25:15.451Z,18.13
2018-09-14T10:30:48.876Z,16.40
2018-09-14T10:33:22.710Z,18.57
2018-09-14T10:35:57.426Z,16.40
2018-09-14T10:38:31.247Z,17.80
2018-09-14T10:41:05.187Z,20.50
2018-09-14T10:43:39.101Z,18.50
2018-09-14T10:46:12.968Z,17.37
2018-09-14T10:51:48.210Z,18.40
2018-09-14T10:54:21.953Z,20.70
2018-09-14T11:08:54.966Z,19.07
2018-09-14T11:11:28.811Z,17.30
2018-09-14T11:19:41.436Z,17.30
2018-09-14T11:22:38.912Z,17.77
2018-09-14T11:25:13.593Z,17.47
2018-09-14T11:27:47.451Z,15.87
2018-09-14T11:33:20.401Z,15.87
2018-09-14T11:36:00.560Z,17.73
2018-09-14T11:38:34.535Z,16.37
2018-09-14T11:41:11.199Z,17.70
2018-09-14T11:43:52.742Z,18.23
2018-09-14T11:46:27.491Z,17.70
2018-09-14T12:01:00.939Z,15.83
2018-09-14T12:06:35.075Z,16.60
2018-09-14T12:09:08.955Z,17.63
2018-09-14T12:11:43.632Z,19.50
2018-09-14T12:14:17.454Z,18.70
2018-09-14T12:16:52.332Z,15.83
2018-09-14T12:19:28.224Z,14.57
2018-09-14T12:25:01.870Z,13.87
2018-09-14T12:27:35.689Z,14.00
2018-09-14T12:30:10.270Z,14.17
2018-09-14T12:32:44.048Z,14.57
2018-09-14T12:38:16.886Z,13.20
2018-09-14T12:40:50.703Z,11.63
2018-09-14T12:43:24.605Z,13.93
2018-09-14T12:45:59.247Z,13.67
2018-09-14T12:48:33.133Z,14.20
2018-09-14T12:51:07.070Z,15.80
2018-09-14T12:59:04.790Z,14.43
2018-09-14T13:01:43.683Z,13.40
2018-09-14T13:04:20.953Z,11.97
2018-09-14T13:12:54.623Z,10.90
2018-09-14T13:15:29.115Z,15.60
2018-09-14T13:18:03.781Z,15.33
2018-09-14T13:20:37.505Z,12.13
2018-09-14T13:25:53.716Z,11.97
2018-09-14T13:31:31.170Z,10.30
2018-09-14T13:34:07.899Z,9.87
2018-09-14T13:36:41.587Z,11.10
2018-09-14T13:39:15.634Z,9.87
2018-09-14T13:41:50.082Z,9.90
2018-09-14T13:44:25.124Z,10.90
2018-09-14T13:46:58.871Z,9.90
2018-09-14T13:52:39.833Z,11.07
2018-09-14T13:55:14.753Z,9.10
2018-09-14T14:00:48.563Z,10.27
2018-09-14T14:03:24.410Z,10.03
2018-09-14T14:14:57.764Z,10.60
2018-09-14T14:17:35.314Z,9.83
2018-09-14T14:23:08.493Z,10.20
2018-09-14T14:25:42.391Z,10.20
2018-09-14T14:34:15.902Z,11.60
2018-09-14T14:36:50.583Z,10.10
2018-09-14T14:39:24.431Z,11.23
2018-09-14T14:41:58.202Z,11.50
2018-09-14T14:44:32.823Z,11.70
2018-09-14T14:47:07.315Z,12.40
2018-09-14T14:49:41.996Z,14.07
2018-09-14T14:52:17.708Z,16.37
2018-09-14T14:54:51.513Z,14.97
2018-09-14T14:57:27.099Z,17.50
2018-09-14T15:00:00.804Z,18.73
2018-09-14T15:02:40.324Z,20.50
2018-09-14T15:08:13.991Z,19.43
2018-09-14T15:10:48.017Z,19.20
2018-09-14T15:13:21.768Z,20.30
2018-09-14T15:16:06.556Z,18.93
2018-09-14T15:21:41.268Z,19.20
2018-09-14T15:27:14.910Z,18.70
2018-09-14T15:29:49.493Z,17.63
2018-09-14T15:32:24.254Z,19.13
2018-09-14T15:34:58.103Z,17.70
2018-09-14T15:37:31.898Z,19.53
2018-09-14T15:40:05.721Z,19.10
2018-09-14T15:42:40.913Z,18.33
2018-09-14T15:45:14.723Z,18.47
2018-09-14T15:47:48.490Z,18.50
2018-09-14T15:50:24.419Z,18.33
2018-09-14T15:52:59.095Z,17.97
2018-09-14T15:55:32.956Z,18.67
2018-09-14T15:58:06.747Z,18.00
2018-09-14T16:03:40.588Z,18.00
2018-09-14T16:09:22.148Z,17.20
2018-09-14T16:11:55.935Z,16.40
2018-09-14T16:14:30.583Z,17.57
2018-09-14T16:20:04.728Z,18.10
2018-09-14T16:22:40.175Z,16.77
2018-09-14T16:25:14.860Z,17.33
2018-09-14T16:27:48.649Z,16.90
2018-09-14T16:30:23.170Z,16.17
2018-09-14T16:32:57.473Z,17.57
2018-09-14T16:44:33.614Z,14.10
2018-09-14T16:47:07.510Z,15.17
2018-09-14T16:49:41.267Z,14.20
2018-09-14T16:52:39.224Z,15.10
2018-09-14T16:55:13.053Z,14.30
2018-09-14T17:03:46.000Z,14.63
2018-09-14T17:12:19.361Z,15.30
2018-09-14T17:17:35.016Z,16.00
2018-09-14T17:20:08.870Z,17.40
2018-09-14T17:22:42.725Z,16.30
2018-09-14T17:28:16.327Z,16.10
2018-09-14T17:30:50.032Z,16.40
2018-09-14T17:33:24.571Z,17.00
2018-09-14T17:42:01.987Z,15.90
2018-09-14T17:44:37.654Z,15.77
2018-09-14T17:47:12.083Z,14.50
2018-09-14T17:49:45.960Z,14.87
2018-09-14T17:52:19.637Z,16.13
2018-09-14T17:54:55.164Z,15.40
2018-09-14T17:57:28.807Z,15.40
2018-09-14T18:03:01.961Z,14.60
2018-09-14T18:08:35.525Z,14.87
2018-09-14T18:14:09.235Z,15.90
2018-09-14T18:19:44.902Z,15.20
2018-09-14T18:22:38.553Z,15.67
2018-09-14T18:25:15.315Z,15.50
2018-09-14T18:27:49.285Z,14.52
2018-09-14T18:30:22.912Z,16.80
2018-09-14T18:32:56.547Z,13.82
2018-09-14T18:35:30.249Z,15.00
2018-09-14T18:38:05.975Z,14.37
2018-09-14T18:43:39.272Z,12.52
2018-09-14T18:46:13.917Z,11.95
2018-09-14T18:48:47.720Z,13.70
2018-09-14T18:54:22.192Z,11.10
2018-09-14T18:56:55.983Z,12.48
2018-09-14T18:59:31.483Z,13.80
2018-09-14T19:02:05.239Z,14.85
2018-09-14T19:07:38.939Z,12.00
2018-09-14T19:13:12.141Z,12.20
2018-09-14T19:21:45.819Z,12.95
2018-09-14T19:24:21.335Z,10.85
2018-09-14T19:32:54.834Z,12.73
2018-09-14T19:35:29.413Z,11.60
2018-09-14T19:41:02.589Z,10.75
2018-09-14T19:43:36.352Z,12.02
2018-09-14T19:46:10.039Z,11.45
2018-09-14T20:00:43.283Z,13.50
2018-09-14T20:03:17.924Z,12.30
2018-09-14T20:11:52.701Z,12.02
2018-09-14T20:14:26.496Z,15.45
2018-09-14T20:22:59.781Z,12.20
2018-09-14T20:28:34.516Z,12.27
2018-09-14T20:31:08.295Z,12.48
2018-09-14T20:33:42.817Z,12.37
2018-09-14T20:36:16.610Z,12.63
2018-09-14T20:38:50.329Z,12.07
2018-09-14T20:47:24.206Z,12.73
2018-09-14T20:49:57.955Z,12.18
2018-09-14T20:52:40.292Z,11.40
2018-09-14T20:55:14.041Z,12.70
2018-09-14T20:57:47.775Z,10.70
2018-09-14T21:03:21.033Z,10.38
2018-09-14T21:08:55.623Z,10.43
2018-09-14T21:17:29.423Z,10.38
2018-09-14T21:20:03.154Z,11.70
2018-09-14T21:22:40.778Z,11.63
2018-09-14T21:31:14.198Z,11.65
2018-09-14T21:36:48.839Z,14.10
2018-09-14T21:39:22.578Z,12.73
2018-09-14T21:41:57.107Z,11.12
2018-09-14T21:44:30.771Z,11.93
2018-09-14T21:47:04.545Z,11.10
2018-09-14T21:49:38.390Z,10.98
2018-09-14T21:52:12.135Z,10.80
2018-09-14T21:54:46.016Z,10.80
2018-09-14T21:57:19.827Z,10.95
2018-09-14T21:59:53.837Z,11.30
2018-09-14T22:02:40.783Z,11.38
2018-09-14T22:08:13.984Z,10.38
2018-09-14T22:13:49.559Z,10.40
2018-09-14T22:16:24.142Z,11.05
2018-09-14T22:27:57.574Z,10.73
2018-09-14T22:33:31.314Z,9.82
2018-09-14T22:36:05.220Z,11.43
2018-09-14T22:41:39.093Z,10.00
2018-09-14T22:44:13.686Z,11.15
2018-09-14T22:46:47.530Z,11.23
2018-09-14T22:52:41.043Z,10.63
2018-09-14T22:58:14.105Z,10.63
2018-09-14T23:03:47.519Z,11.70
2018-09-14T23:09:22.102Z,10.02
2018-09-14T23:23:54.627Z,11.68
2018-09-14T23:26:29.244Z,10.93
2018-09-14T23:32:03.697Z,10.57
2018-09-14T23:43:37.067Z,10.13
2018-09-14T23:46:10.787Z,10.80
2018-09-14T23:48:45.406Z,10.45
2018-09-14T23:54:18.389Z,9.80
2018-09-14T23:59:52.331Z,9.63
